createdAt,value
2023-05-20T00:02:03.280Z,2.53
2023-05-20T00:04:35.379Z,2.90
2023-05-20T00:07:07.806Z,2.90
2023-05-20T00:09:40.161Z,2.57
2023-05-20T00:12:12.144Z,3.00
2023-05-20T00:14:44.343Z,3.10
2023-05-20T00:17:16.343Z,2.90
2023-05-20T00:19:48.399Z,2.97
2023-05-20T00:22:20.839Z,3.13
2023-05-20T00:24:52.834Z,3.33
2023-05-20T00:27:24.811Z,3.20
2023-05-20T00:29:56.730Z,3.10
2023-05-20T00:32:28.820Z,3.30
2023-05-20T00:35:02.768Z,3.13
2023-05-20T00:37:34.786Z,2.97
2023-05-20T00:40:07.859Z,2.97
2023-05-20T00:42:39.812Z,3.23
2023-05-20T00:45:11.985Z,3.10
2023-05-20T00:47:44.412Z,3.10
2023-05-20T00:50:17.552Z,3.20
2023-05-20T00:52:51.679Z,3.40
2023-05-20T00:55:23.768Z,3.57
2023-05-20T00:57:56.086Z,3.17
2023-05-20T01:00:28.081Z,3.70
2023-05-20T01:03:00.901Z,3.43
2023-05-20T01:05:33.479Z,3.57
2023-05-20T01:08:05.734Z,3.57
2023-05-20T01:10:44.427Z,3.37
2023-05-20T01:13:27.129Z,3.53
2023-05-20T01:16:01.336Z,3.50
2023-05-20T01:18:33.715Z,3.80
2023-05-20T01:21:12.117Z,3.37
2023-05-20T01:23:44.446Z,3.30
2023-05-20T01:26:17.245Z,3.63
2023-05-20T01:28:50.251Z,3.53
2023-05-20T01:31:29.615Z,3.37
2023-05-20T01:34:02.738Z,3.63
2023-05-20T01:36:35.006Z,3.23
2023-05-20T01:39:07.731Z,3.37
2023-05-20T01:41:41.643Z,3.60
2023-05-20T01:44:13.899Z,3.93
2023-05-20T01:46:50.865Z,3.60
2023-05-20T01:49:22.868Z,3.70
2023-05-20T01:51:55.707Z,3.50
2023-05-20T01:54:27.658Z,3.60
2023-05-20T01:56:59.624Z,3.23
2023-05-20T01:59:31.630Z,3.57
2023-05-20T02:02:04.404Z,3.70
2023-05-20T02:04:36.489Z,3.20
2023-05-20T02:07:08.631Z,3.53
2023-05-20T02:09:40.954Z,4.30
2023-05-20T02:12:17.034Z,4.00
2023-05-20T02:14:50.481Z,3.70
2023-05-20T02:17:22.497Z,4.20
2023-05-20T02:19:54.592Z,4.17
2023-05-20T02:22:26.636Z,4.20
2023-05-20T02:24:58.643Z,3.70
2023-05-20T02:27:30.689Z,3.93
2023-05-20T02:30:02.732Z,3.93
2023-05-20T02:32:34.974Z,3.93
2023-05-20T02:35:07.567Z,4.00
2023-05-20T02:37:39.671Z,3.97
2023-05-20T02:40:12.025Z,3.93
2023-05-20T02:42:43.979Z,4.20
2023-05-20T02:45:16.064Z,3.80
2023-05-20T02:47:48.139Z,4.00
2023-05-20T02:50:20.396Z,3.57
2023-05-20T02:52:52.436Z,4.20
2023-05-20T02:55:24.560Z,3.93
2023-05-20T02:57:56.563Z,4.03
2023-05-20T03:00:30.850Z,4.20
2023-05-20T03:03:03.476Z,4.23
2023-05-20T03:05:38.112Z,4.20
2023-05-20T03:08:11.016Z,4.10
2023-05-20T03:10:43.049Z,4.10
2023-05-20T03:13:15.660Z,4.37
2023-05-20T03:15:47.686Z,4.30
2023-05-20T03:18:19.813Z,4.40
2023-05-20T03:20:51.732Z,4.70
2023-05-20T03:23:23.680Z,4.30
2023-05-20T03:25:55.778Z,4.20
2023-05-20T03:28:27.886Z,4.20
2023-05-20T03:30:59.934Z,4.37
2023-05-20T03:33:34.877Z,4.17
2023-05-20T03:36:06.856Z,4.30
2023-05-20T03:38:38.828Z,5.00
2023-05-20T03:41:11.061Z,4.40
2023-05-20T03:43:43.088Z,4.57
2023-05-20T03:46:15.195Z,4.77
2023-05-20T03:48:47.233Z,4.30
2023-05-20T03:51:19.258Z,4.50
2023-05-20T03:53:51.206Z,4.67
2023-05-20T03:56:23.175Z,4.40
2023-05-20T03:58:55.169Z,4.67
2023-05-20T04:01:27.233Z,4.60
2023-05-20T04:03:59.247Z,4.60
2023-05-20T04:06:31.627Z,4.30
2023-05-20T04:09:04.036Z,4.20
2023-05-20T04:11:36.007Z,4.97
2023-05-20T04:14:10.555Z,4.57
2023-05-20T04:16:43.637Z,4.57
2023-05-20T04:19:16.209Z,5.07
2023-05-20T04:21:48.266Z,4.43
2023-05-20T04:24:25.039Z,4.60
2023-05-20T04:26:57.054Z,4.40
2023-05-20T04:29:30.132Z,4.50
2023-05-20T04:32:02.172Z,4.60
2023-05-20T04:34:35.168Z,5.20
2023-05-20T04:37:09.689Z,5.23
2023-05-20T04:39:43.688Z,4.70
2023-05-20T04:42:18.563Z,4.73
2023-05-20T04:44:50.609Z,4.90
2023-05-20T04:47:22.606Z,5.00
2023-05-20T04:49:57.717Z,4.80
2023-05-20T04:52:29.683Z,4.47
2023-05-20T04:55:01.928Z,5.33
2023-05-20T04:57:35.285Z,5.13
2023-05-20T05:00:12.432Z,5.00
2023-05-20T05:02:44.786Z,4.60
2023-05-20T05:05:16.832Z,5.27
2023-05-20T05:07:49.019Z,4.90
2023-05-20T05:10:21.958Z,4.73
2023-05-20T05:12:54.318Z,5.10
2023-05-20T05:15:26.367Z,5.27
2023-05-20T05:17:58.927Z,4.90
2023-05-20T05:20:30.968Z,5.33
2023-05-20T05:23:03.235Z,5.13
2023-05-20T05:25:35.411Z,5.07
2023-05-20T05:28:07.605Z,4.90
2023-05-20T05:30:39.583Z,5.10
2023-05-20T05:33:11.556Z,4.97
2023-05-20T05:35:44.188Z,4.90
2023-05-20T05:38:16.593Z,4.80
2023-05-20T05:40:48.591Z,4.97
2023-05-20T05:43:20.552Z,4.60
2023-05-20T05:45:52.613Z,4.60
2023-05-20T05:48:24.630Z,4.77
2023-05-20T05:50:56.698Z,5.33
2023-05-20T05:53:28.779Z,4.93
2023-05-20T05:56:00.878Z,4.87
2023-05-20T05:58:33.189Z,4.97
2023-05-20T06:01:05.296Z,4.90
2023-05-20T06:03:37.390Z,4.43
2023-05-20T06:06:09.562Z,4.77
2023-05-20T06:08:41.522Z,4.60
2023-05-20T06:11:13.628Z,5.47
2023-05-20T06:13:45.602Z,4.80
2023-05-20T06:16:17.709Z,4.67
2023-05-20T06:18:50.553Z,4.10
2023-05-20T06:21:23.084Z,4.23
2023-05-20T06:23:55.054Z,4.67
2023-05-20T06:26:27.070Z,4.27
2023-05-20T06:28:59.037Z,4.20
2023-05-20T06:31:31.250Z,4.37
2023-05-20T06:34:03.300Z,4.10
2023-05-20T06:36:35.473Z,3.77
2023-05-20T06:39:12.292Z,3.93
2023-05-20T06:41:44.420Z,3.57
2023-05-20T06:44:16.448Z,3.73
2023-05-20T06:46:48.510Z,3.87
2023-05-20T06:49:20.610Z,3.83
2023-05-20T06:51:52.680Z,3.70
2023-05-20T06:54:24.634Z,3.30
2023-05-20T06:56:56.710Z,3.40
2023-05-20T06:59:28.743Z,3.27
2023-05-20T07:02:00.902Z,3.90
2023-05-20T07:04:32.973Z,3.67
2023-05-20T07:07:05.256Z,3.50
2023-05-20T07:09:37.210Z,3.40
2023-05-20T07:12:09.315Z,3.57
2023-05-20T07:14:41.347Z,3.57
2023-05-20T07:17:13.428Z,3.50
2023-05-20T07:19:45.382Z,3.33
2023-05-20T07:22:17.446Z,3.23
2023-05-20T07:24:49.430Z,3.57
2023-05-20T07:27:21.381Z,3.20
2023-05-20T07:29:53.379Z,3.20
2023-05-20T07:32:25.502Z,3.37
2023-05-20T07:34:57.429Z,3.30
2023-05-20T07:37:29.450Z,3.73
2023-05-20T07:40:02.057Z,3.27
2023-05-20T07:42:34.359Z,3.20
2023-05-20T07:45:07.357Z,3.00
2023-05-20T07:47:39.485Z,3.90
2023-05-20T07:50:11.646Z,3.10
2023-05-20T07:52:55.379Z,3.10
2023-05-20T07:55:28.263Z,3.20
2023-05-20T07:58:00.237Z,3.60
2023-05-20T08:00:32.244Z,3.30
2023-05-20T08:03:04.503Z,2.70
2023-05-20T08:05:41.786Z,3.30
2023-05-20T08:08:13.718Z,3.17
2023-05-20T08:10:45.752Z,3.10
2023-05-20T08:13:17.693Z,3.20
2023-05-20T08:15:49.743Z,3.50
2023-05-20T08:18:22.455Z,3.17
2023-05-20T08:20:54.384Z,3.17
2023-05-20T08:23:26.661Z,2.87
2023-05-20T08:26:02.184Z,3.07
2023-05-20T08:28:34.302Z,2.93
2023-05-20T08:31:06.479Z,3.10
2023-05-20T08:33:38.496Z,2.87
2023-05-20T08:36:10.486Z,3.07
2023-05-20T08:38:42.614Z,2.77
2023-05-20T08:41:14.637Z,2.90
2023-05-20T08:43:48.134Z,2.80
2023-05-20T08:46:22.562Z,3.10
2023-05-20T08:48:54.706Z,3.00
2023-05-20T08:51:28.012Z,2.93
2023-05-20T08:54:00.462Z,2.90
2023-05-20T08:56:33.868Z,2.70
2023-05-20T08:59:06.663Z,3.43
2023-05-20T09:01:44.126Z,3.00
2023-05-20T09:04:16.227Z,2.87
2023-05-20T09:06:48.596Z,2.63
2023-05-20T09:09:21.305Z,2.90
2023-05-20T09:11:53.292Z,2.70
2023-05-20T09:14:27.209Z,2.60
2023-05-20T09:16:59.599Z,2.53
2023-05-20T09:19:33.939Z,2.87
2023-05-20T09:22:06.236Z,2.77
2023-05-20T09:24:38.214Z,2.60
2023-05-20T09:27:11.160Z,2.60
2023-05-20T09:29:43.858Z,2.70
2023-05-20T09:32:16.606Z,2.47
2023-05-20T09:34:48.718Z,3.00
2023-05-20T09:37:24.683Z,2.63
2023-05-20T09:40:01.373Z,2.80
2023-05-20T09:42:44.146Z,2.90
2023-05-20T09:45:16.246Z,2.70
2023-05-20T09:47:52.997Z,2.70
2023-05-20T09:50:26.465Z,3.00
2023-05-20T09:53:04.141Z,2.90
2023-05-20T09:55:37.780Z,2.70
2023-05-20T09:58:14.778Z,2.60
2023-05-20T10:00:48.542Z,3.00
2023-05-20T10:03:28.183Z,2.67
2023-05-20T10:06:49.641Z,2.80
2023-05-20T10:09:57.518Z,2.60
2023-05-20T10:13:00.421Z,2.50
2023-05-20T10:15:55.697Z,2.67
2023-05-20T10:18:48.701Z,2.60
2023-05-20T10:21:24.707Z,2.50
2023-05-20T10:24:10.579Z,2.50
2023-05-20T10:26:42.870Z,2.67
2023-05-20T10:29:20.138Z,2.37
2023-05-20T10:31:53.754Z,2.67
2023-05-20T10:34:25.916Z,2.80
2023-05-20T10:36:59.528Z,2.60
2023-05-20T10:39:34.698Z,2.43
2023-05-20T10:42:08.456Z,2.60
2023-05-20T10:44:45.544Z,2.50
2023-05-20T10:47:25.383Z,2.90
2023-05-20T10:49:58.576Z,2.80
2023-05-20T10:52:39.646Z,2.70
2023-05-20T10:55:21.939Z,2.83
2023-05-20T10:57:54.386Z,2.70
2023-05-20T11:00:26.648Z,2.87
2023-05-20T11:02:59.114Z,2.90
2023-05-20T11:05:32.610Z,3.00
2023-05-20T11:08:24.136Z,2.80
2023-05-20T11:11:00.268Z,2.53
2023-05-20T11:13:32.524Z,2.80
2023-05-20T11:16:05.666Z,2.77
2023-05-20T11:18:37.680Z,2.50
2023-05-20T11:21:09.729Z,2.60
2023-05-20T11:23:42.340Z,2.67
2023-05-20T11:26:14.616Z,2.90
2023-05-20T11:28:47.319Z,2.30
2023-05-20T11:31:19.847Z,2.43
2023-05-20T11:33:52.954Z,2.60
2023-05-20T11:36:27.883Z,2.43
2023-05-20T11:39:01.066Z,2.37
2023-05-20T11:41:33.769Z,2.30
2023-05-20T11:44:11.189Z,2.43
2023-05-20T11:46:46.131Z,2.70
2023-05-20T11:49:18.405Z,2.43
2023-05-20T11:51:51.893Z,2.60
2023-05-20T11:54:24.912Z,2.57
2023-05-20T11:56:57.048Z,2.50
2023-05-20T11:59:29.778Z,2.63
2023-05-20T12:02:01.915Z,2.80
2023-05-20T12:04:34.021Z,3.03
2023-05-20T12:07:09.412Z,2.13
2023-05-20T12:09:41.511Z,2.63
2023-05-20T12:12:14.277Z,2.50
2023-05-20T12:14:46.262Z,2.60
2023-05-20T12:17:18.312Z,2.60
2023-05-20T12:19:50.447Z,2.57
2023-05-20T12:22:22.449Z,2.40
2023-05-20T12:24:55.396Z,2.50
2023-05-20T12:27:28.217Z,2.80
2023-05-20T12:30:00.584Z,2.50
2023-05-20T12:32:32.559Z,3.10
2023-05-20T12:35:05.284Z,2.90
2023-05-20T12:37:39.500Z,2.63
2023-05-20T12:40:12.893Z,2.50
2023-05-20T12:42:45.112Z,2.90
2023-05-20T12:45:17.252Z,2.47
2023-05-20T12:47:49.416Z,2.87
2023-05-20T12:50:22.227Z,2.70
2023-05-20T12:52:54.292Z,2.40
2023-05-20T12:55:26.373Z,2.80
2023-05-20T12:57:58.366Z,3.13
2023-05-20T13:00:30.442Z,2.90
2023-05-20T13:03:03.169Z,2.93
2023-05-20T13:05:35.230Z,5.50
2023-05-20T13:08:09.072Z,14.43
2023-05-20T13:10:41.366Z,5.03
2023-05-20T13:13:13.926Z,6.17
2023-05-20T13:15:45.934Z,2.77
2023-05-20T13:18:18.008Z,3.03
2023-05-20T13:20:50.062Z,2.90
2023-05-20T13:23:22.019Z,2.50
2023-05-20T13:25:54.011Z,2.40
2023-05-20T13:28:26.091Z,2.37
2023-05-20T13:30:58.095Z,2.57
2023-05-20T13:33:30.125Z,2.63
2023-05-20T13:36:02.457Z,2.70
2023-05-20T13:38:35.307Z,2.63
2023-05-20T13:41:09.211Z,2.60
2023-05-20T13:43:42.192Z,2.57
2023-05-20T13:46:14.181Z,2.50
2023-05-20T13:48:46.219Z,2.27
2023-05-20T13:51:18.291Z,2.40
2023-05-20T13:53:50.262Z,2.40
2023-05-20T13:56:22.394Z,2.40
2023-05-20T13:58:54.423Z,2.60
2023-05-20T14:01:33.085Z,2.50
2023-05-20T14:04:05.379Z,2.40
2023-05-20T14:06:37.474Z,2.50
2023-05-20T14:09:09.542Z,2.60
2023-05-20T14:11:41.578Z,2.37
2023-05-20T14:14:13.567Z,2.47
2023-05-20T14:16:45.583Z,2.50
2023-05-20T14:19:17.600Z,2.37
2023-05-20T14:21:49.617Z,2.50
2023-05-20T14:24:23.481Z,2.67
2023-05-20T14:26:56.281Z,2.23
2023-05-20T14:29:28.303Z,2.50
2023-05-20T14:32:01.522Z,2.20
2023-05-20T14:34:33.547Z,2.50
2023-05-20T14:37:09.881Z,2.40
2023-05-20T14:39:42.098Z,2.27
2023-05-20T14:42:14.171Z,2.30
2023-05-20T14:44:47.283Z,2.27
2023-05-20T14:47:22.342Z,2.60
2023-05-20T14:49:54.763Z,2.47
2023-05-20T14:52:26.887Z,2.60
2023-05-20T14:54:58.927Z,2.30
2023-05-20T14:57:31.047Z,2.30
2023-05-20T15:00:04.228Z,2.33
2023-05-20T15:02:36.476Z,2.57
2023-05-20T15:05:11.939Z,2.60
2023-05-20T15:07:44.777Z,2.60
2023-05-20T15:10:16.956Z,2.07
2023-05-20T15:12:49.266Z,2.20
2023-05-20T15:15:21.811Z,2.20
2023-05-20T15:17:53.929Z,2.20
2023-05-20T15:20:26.123Z,2.30
2023-05-20T15:22:59.212Z,2.70
2023-05-20T15:25:32.966Z,2.30
2023-05-20T15:28:05.231Z,2.47
2023-05-20T15:30:37.420Z,2.60
2023-05-20T15:33:09.816Z,2.70
2023-05-20T15:35:41.788Z,3.40
2023-05-20T15:38:15.263Z,4.13
2023-05-20T15:40:50.271Z,3.87
2023-05-20T15:43:22.407Z,3.80
2023-05-20T15:45:54.797Z,3.17
2023-05-20T15:48:26.886Z,2.63
2023-05-20T15:50:58.891Z,2.37
2023-05-20T15:53:32.219Z,2.40
2023-05-20T15:56:04.540Z,2.40
2023-05-20T15:58:36.559Z,2.27
2023-05-20T16:01:08.717Z,2.37
2023-05-20T16:03:40.797Z,2.00
2023-05-20T16:06:13.106Z,2.30
2023-05-20T16:08:45.090Z,2.47
2023-05-20T16:11:17.069Z,2.30
2023-05-20T16:13:49.112Z,4.20
2023-05-20T16:16:21.279Z,2.80
2023-05-20T16:18:53.555Z,2.70
2023-05-20T16:21:26.200Z,2.20
2023-05-20T16:23:58.177Z,2.37
2023-05-20T16:26:31.523Z,2.23
2023-05-20T16:29:03.666Z,2.50
2023-05-20T16:31:35.917Z,2.47
2023-05-20T16:34:08.525Z,2.50
2023-05-20T16:36:40.524Z,2.40
2023-05-20T16:39:13.637Z,2.80
2023-05-20T16:41:45.636Z,2.50
2023-05-20T16:44:17.683Z,2.33
2023-05-20T16:46:50.824Z,2.30
2023-05-20T16:49:23.986Z,2.20
2023-05-20T16:51:56.055Z,2.00
2023-05-20T16:54:28.082Z,2.10
2023-05-20T16:57:00.047Z,2.10
2023-05-20T16:59:35.097Z,2.20
2023-05-20T17:02:07.119Z,1.90
2023-05-20T17:04:39.321Z,2.30
2023-05-20T17:07:11.397Z,1.90
2023-05-20T17:09:43.723Z,1.87
2023-05-20T17:12:15.768Z,2.53
2023-05-20T17:14:47.736Z,2.10
2023-05-20T17:17:21.210Z,2.30
2023-05-20T17:19:53.253Z,2.13
2023-05-20T17:22:25.504Z,2.20
2023-05-20T17:24:57.493Z,1.90
2023-05-20T17:27:29.742Z,2.00
2023-05-20T17:30:01.792Z,1.90
2023-05-20T17:32:33.850Z,2.20
2023-05-20T17:35:07.427Z,1.97
2023-05-20T17:37:39.522Z,1.90
2023-05-20T17:40:13.770Z,2.00
2023-05-20T17:42:48.034Z,2.07
2023-05-20T17:45:20.068Z,2.03
2023-05-20T17:47:52.216Z,1.90
2023-05-20T17:50:24.307Z,1.60
2023-05-20T17:52:56.284Z,1.80
2023-05-20T17:55:29.238Z,2.00
2023-05-20T17:58:01.890Z,1.80
2023-05-20T18:00:34.823Z,1.80
2023-05-20T18:03:07.260Z,1.53
2023-05-20T18:05:39.288Z,2.10
2023-05-20T18:08:11.796Z,2.00
2023-05-20T18:10:43.780Z,2.30
2023-05-20T18:13:15.890Z,1.97
2023-05-20T18:15:48.348Z,1.80
2023-05-20T18:18:20.725Z,1.73
2023-05-20T18:20:52.758Z,1.73
2023-05-20T18:23:24.843Z,1.93
2023-05-20T18:25:56.975Z,1.73
2023-05-20T18:28:28.959Z,2.07
2023-05-20T18:31:01.015Z,1.87
2023-05-20T18:33:33.023Z,1.77
2023-05-20T18:36:06.091Z,1.70
2023-05-20T18:38:41.235Z,1.70
2023-05-20T18:41:13.602Z,1.90
2023-05-20T18:43:45.669Z,1.70
2023-05-20T18:46:18.802Z,1.80
2023-05-20T18:48:50.858Z,2.00
2023-05-20T18:51:22.811Z,1.80
2023-05-20T18:53:54.794Z,1.80
2023-05-20T18:56:27.355Z,2.00
2023-05-20T18:59:00.071Z,2.10
2023-05-20T19:01:33.868Z,2.07
2023-05-20T19:04:06.072Z,2.00
2023-05-20T19:06:38.189Z,2.03
2023-05-20T19:09:10.195Z,1.80
2023-05-20T19:11:42.191Z,2.00
2023-05-20T19:14:14.419Z,1.97
2023-05-20T19:16:46.427Z,2.10
2023-05-20T19:19:18.671Z,2.00
2023-05-20T19:21:50.955Z,1.93
2023-05-20T19:24:23.717Z,1.90
2023-05-20T19:26:55.712Z,1.93
2023-05-20T19:29:27.763Z,1.90
2023-05-20T19:31:59.821Z,1.97
2023-05-20T19:34:31.865Z,1.80
2023-05-20T19:37:03.870Z,2.00
2023-05-20T19:39:36.332Z,1.90
2023-05-20T19:42:08.556Z,2.10
2023-05-20T19:44:40.597Z,2.47
2023-05-20T19:47:12.907Z,2.20
2023-05-20T19:49:45.009Z,2.30
2023-05-20T19:52:19.093Z,2.20
2023-05-20T19:54:51.101Z,2.17
2023-05-20T19:57:23.114Z,2.03
2023-05-20T19:59:55.244Z,2.93
2023-05-20T20:02:27.306Z,2.83
2023-05-20T20:05:01.199Z,2.37
2023-05-20T20:07:33.364Z,2.50
2023-05-20T20:10:06.107Z,2.37
2023-05-20T20:12:38.108Z,2.33
2023-05-20T20:15:11.266Z,2.30
2023-05-20T20:17:45.704Z,2.20
2023-05-20T20:20:19.399Z,2.17
2023-05-20T20:22:51.437Z,2.63
2023-05-20T20:25:23.737Z,2.50
2023-05-20T20:27:56.096Z,2.30
2023-05-20T20:30:28.281Z,2.33
2023-05-20T20:33:01.352Z,2.10
2023-05-20T20:35:34.244Z,2.37
2023-05-20T20:38:08.842Z,2.30
2023-05-20T20:40:44.868Z,2.60
2023-05-20T20:43:21.226Z,2.40
2023-05-20T20:45:56.394Z,2.10
2023-05-20T20:48:28.419Z,2.13
2023-05-20T20:51:02.016Z,2.00
2023-05-20T20:53:34.035Z,2.03
2023-05-20T20:56:06.143Z,2.50
2023-05-20T20:58:39.393Z,2.30
2023-05-20T21:01:11.451Z,2.20
2023-05-20T21:03:44.722Z,2.23
2023-05-20T21:06:16.783Z,2.40
2023-05-20T21:08:48.786Z,2.10
2023-05-20T21:11:22.475Z,2.23
2023-05-20T21:13:55.607Z,2.43
2023-05-20T21:16:27.600Z,2.10
2023-05-20T21:18:59.750Z,2.20
2023-05-20T21:21:31.976Z,2.20
2023-05-20T21:24:04.103Z,2.23
2023-05-20T21:26:36.161Z,2.20
2023-05-20T21:29:10.010Z,2.13
2023-05-20T21:31:42.059Z,2.20
2023-05-20T21:34:14.221Z,2.20
2023-05-20T21:36:46.348Z,2.47
2023-05-20T21:39:18.494Z,2.30
2023-05-20T21:41:50.599Z,2.30
2023-05-20T21:44:22.583Z,2.63
2023-05-20T21:46:54.744Z,2.30
2023-05-20T21:49:26.791Z,2.57
2023-05-20T21:51:58.879Z,2.50
2023-05-20T21:54:30.862Z,2.50
2023-05-20T21:57:02.934Z,2.30
2023-05-20T21:59:35.116Z,2.50
2023-05-20T22:02:07.249Z,2.30
2023-05-20T22:04:39.296Z,2.50
2023-05-20T22:07:11.344Z,2.63
2023-05-20T22:09:43.364Z,2.30
2023-05-20T22:12:15.638Z,2.70
2023-05-20T22:14:47.713Z,2.57
2023-05-20T22:17:20.535Z,2.50
2023-05-20T22:19:54.102Z,2.53
2023-05-20T22:22:26.399Z,2.20
2023-05-20T22:24:58.537Z,2.60
2023-05-20T22:27:30.840Z,2.70
2023-05-20T22:30:06.090Z,2.63
2023-05-20T22:32:38.359Z,2.90
2023-05-20T22:35:13.217Z,2.33
2023-05-20T22:37:45.682Z,2.43
2023-05-20T22:40:18.237Z,2.63
2023-05-20T22:42:50.171Z,2.90
2023-05-20T22:45:22.143Z,2.70
2023-05-20T22:47:54.440Z,2.50
2023-05-20T22:50:27.726Z,2.90
2023-05-20T22:52:59.682Z,2.70
2023-05-20T22:55:31.652Z,2.60
2023-05-20T22:58:03.813Z,2.80
2023-05-20T23:00:35.834Z,2.80
2023-05-20T23:03:07.830Z,2.73
2023-05-20T23:05:39.868Z,3.17
2023-05-20T23:08:11.854Z,3.03
2023-05-20T23:10:43.796Z,2.63
2023-05-20T23:13:15.972Z,3.27
2023-05-20T23:15:49.179Z,2.97
2023-05-20T23:18:21.190Z,3.00
2023-05-20T23:20:53.177Z,3.10
2023-05-20T23:23:31.180Z,3.00
2023-05-20T23:26:05.218Z,3.10
2023-05-20T23:28:37.480Z,2.80
2023-05-20T23:31:09.817Z,2.97
2023-05-20T23:33:41.805Z,3.17
2023-05-20T23:36:14.573Z,3.30
2023-05-20T23:38:46.751Z,2.80
2023-05-20T23:41:19.167Z,3.20
2023-05-20T23:43:51.135Z,3.00
2023-05-20T23:46:23.186Z,3.00
2023-05-20T23:48:55.427Z,3.30
2023-05-20T23:51:28.087Z,3.10
2023-05-20T23:54:00.146Z,3.27
2023-05-20T23:56:32.207Z,3.37
2023-05-20T23:59:04.161Z,3.20
